createdAt,value
2023-09-11T00:00:54.434Z,0.08
2023-09-11T00:03:22.027Z,0.10
2023-09-11T00:06:04.261Z,0.05
2023-09-11T00:08:32.145Z,0.10
2023-09-11T00:11:00.762Z,0.00
2023-09-11T00:13:29.852Z,0.00
2023-09-11T00:15:56.982Z,0.00
2023-09-11T00:18:25.328Z,0.00
2023-09-11T00:20:52.923Z,0.00
2023-09-11T00:23:19.973Z,0.00
2023-09-11T00:25:47.046Z,0.00
2023-09-11T00:28:14.199Z,17.92
2023-09-11T00:30:41.132Z,17.35
2023-09-11T00:33:08.059Z,21.05
2023-09-11T00:35:35.384Z,18.48
2023-09-11T00:38:02.389Z,18.90
2023-09-11T00:40:30.006Z,19.27
2023-09-11T00:42:57.257Z,15.90
2023-09-11T00:45:27.375Z,22.23
2023-09-11T00:47:55.616Z,15.98
2023-09-11T00:50:23.974Z,16.15
2023-09-11T00:52:51.702Z,23.00
2023-09-11T00:55:20.469Z,17.42
2023-09-11T00:57:47.504Z,13.93
2023-09-11T01:00:15.273Z,11.25
2023-09-11T01:02:42.720Z,10.90
2023-09-11T01:05:12.830Z,15.20
2023-09-11T01:07:40.268Z,12.25
2023-09-11T01:10:08.133Z,17.33
2023-09-11T01:12:39.337Z,8.40
2023-09-11T01:15:08.182Z,9.82
2023-09-11T01:17:41.178Z,7.95
2023-09-11T01:20:27.661Z,13.40
2023-09-11T01:23:02.231Z,14.13
2023-09-11T01:25:53.248Z,12.38
2023-09-11T01:28:38.648Z,9.95
2023-09-11T01:31:06.478Z,14.68
2023-09-11T01:33:33.888Z,7.30
2023-09-11T01:36:00.829Z,7.53
2023-09-11T01:38:28.830Z,7.40
2023-09-11T01:41:01.223Z,5.72
2023-09-11T01:43:33.261Z,8.85
2023-09-11T01:46:04.311Z,6.95
2023-09-11T01:48:33.347Z,8.15
2023-09-11T01:51:01.198Z,11.98
2023-09-11T01:53:28.387Z,8.02
2023-09-11T01:55:56.920Z,6.90
2023-09-11T01:58:24.386Z,7.38
2023-09-11T02:00:56.037Z,4.60
2023-09-11T02:03:23.091Z,5.20
2023-09-11T02:05:50.831Z,5.60
2023-09-11T02:08:17.827Z,4.53
2023-09-11T02:10:44.750Z,4.00
2023-09-11T02:13:11.739Z,5.55
2023-09-11T02:15:38.627Z,5.15
2023-09-11T02:18:05.812Z,5.32
2023-09-11T02:20:32.829Z,3.85
2023-09-11T02:23:03.036Z,4.68
2023-09-11T02:25:30.555Z,3.40
2023-09-11T02:27:57.437Z,6.28
2023-09-11T02:30:24.693Z,3.80
2023-09-11T02:32:54.231Z,4.72
2023-09-11T02:35:21.280Z,6.28
2023-09-11T02:37:48.142Z,3.95
2023-09-11T02:40:15.141Z,3.90
2023-09-11T02:42:42.064Z,2.53
2023-09-11T02:45:09.378Z,3.20
2023-09-11T02:47:36.318Z,4.22
2023-09-11T02:50:04.721Z,4.18
2023-09-11T02:52:31.893Z,6.75
2023-09-11T02:54:59.175Z,4.07
2023-09-11T02:57:29.140Z,6.90
2023-09-11T02:59:56.763Z,7.80
2023-09-11T03:02:24.283Z,3.95
2023-09-11T03:04:58.406Z,3.83
2023-09-11T03:07:25.628Z,3.83
2023-09-11T03:09:52.697Z,3.92
2023-09-11T03:12:19.629Z,2.72
2023-09-11T03:14:46.625Z,3.28
2023-09-11T03:17:15.354Z,5.75
2023-09-11T03:19:45.708Z,2.53
2023-09-11T03:22:12.714Z,4.70
2023-09-11T03:24:42.240Z,4.28
2023-09-11T03:27:09.669Z,3.58
2023-09-11T03:29:36.583Z,1.60
2023-09-11T03:32:03.520Z,2.58
2023-09-11T03:34:31.758Z,4.43
2023-09-11T03:36:58.764Z,4.45
2023-09-11T03:39:25.642Z,3.20
2023-09-11T03:41:52.760Z,3.33
2023-09-11T03:44:19.823Z,1.45
2023-09-11T03:46:47.153Z,2.00
2023-09-11T03:49:14.577Z,3.22
2023-09-11T03:51:42.734Z,2.90
2023-09-11T03:54:12.400Z,1.83
2023-09-11T03:56:39.448Z,1.42
2023-09-11T03:59:06.400Z,3.08
2023-09-11T04:01:33.327Z,7.25
2023-09-11T04:04:00.505Z,3.38
2023-09-11T04:06:28.151Z,1.95
2023-09-11T04:08:55.396Z,2.17
2023-09-11T04:11:24.182Z,1.88
2023-09-11T04:13:52.924Z,5.10
2023-09-11T04:16:20.848Z,1.80
2023-09-11T04:18:48.043Z,1.77
2023-09-11T04:21:15.095Z,1.73
2023-09-11T04:23:42.048Z,2.45
2023-09-11T04:26:10.088Z,3.78
2023-09-11T04:28:37.450Z,4.68
2023-09-11T04:31:04.781Z,6.07
2023-09-11T04:33:32.425Z,9.15
2023-09-11T04:36:00.589Z,10.25
2023-09-11T04:38:28.037Z,8.52
2023-09-11T04:40:58.374Z,12.50
2023-09-11T04:43:26.435Z,6.38
2023-09-11T04:45:53.370Z,4.63
2023-09-11T04:48:20.403Z,4.30
2023-09-11T04:50:47.922Z,4.47
2023-09-11T04:53:14.870Z,5.13
2023-09-11T04:55:42.736Z,6.35
2023-09-11T04:58:09.697Z,4.70
2023-09-11T05:00:37.030Z,4.25
2023-09-11T05:03:04.263Z,4.78
2023-09-11T05:05:32.266Z,5.60
2023-09-11T05:07:59.415Z,3.00
2023-09-11T05:10:27.107Z,2.50
2023-09-11T05:12:53.962Z,3.58
2023-09-11T05:15:22.163Z,4.18
2023-09-11T05:17:49.197Z,3.42
2023-09-11T05:20:16.284Z,4.43
2023-09-11T05:22:46.021Z,1.92
2023-09-11T05:25:13.456Z,2.20
2023-09-11T05:27:42.003Z,2.33
2023-09-11T05:30:09.344Z,4.40
2023-09-11T05:32:36.632Z,3.67
2023-09-11T05:35:06.618Z,3.55
2023-09-11T05:37:33.786Z,2.15
2023-09-11T05:40:02.040Z,5.20
2023-09-11T05:42:30.736Z,3.35
2023-09-11T05:45:01.572Z,4.43
2023-09-11T05:47:28.735Z,4.60
2023-09-11T05:50:00.872Z,2.97
2023-09-11T05:52:28.688Z,3.08
2023-09-11T05:54:56.846Z,2.17
2023-09-11T05:57:23.814Z,3.53
2023-09-11T05:59:50.781Z,4.05
2023-09-11T06:02:17.647Z,6.93
2023-09-11T06:04:44.566Z,3.40
2023-09-11T06:07:13.930Z,2.72
2023-09-11T06:09:41.050Z,2.90
2023-09-11T06:12:08.525Z,2.95
2023-09-11T06:14:39.346Z,4.30
2023-09-11T06:17:06.580Z,4.57
2023-09-11T06:19:33.493Z,3.75
2023-09-11T06:22:04.141Z,3.92
2023-09-11T06:24:31.084Z,5.57
2023-09-11T06:27:07.863Z,4.97
2023-09-11T06:29:35.253Z,5.68
2023-09-11T06:32:02.245Z,5.25
2023-09-11T06:34:31.108Z,4.55
2023-09-11T06:36:59.964Z,4.07
2023-09-11T06:39:27.418Z,5.07
2023-09-11T06:41:57.299Z,6.60
2023-09-11T06:44:26.372Z,6.05
2023-09-11T06:46:53.317Z,2.67
2023-09-11T06:49:21.752Z,4.80
2023-09-11T06:51:48.654Z,4.25
2023-09-11T06:54:18.463Z,7.15
2023-09-11T06:56:48.463Z,3.72
2023-09-11T06:59:16.414Z,6.95
2023-09-11T07:01:43.244Z,4.20
2023-09-11T07:04:13.239Z,5.55
2023-09-11T07:06:42.057Z,5.70
2023-09-11T07:09:09.414Z,4.95
2023-09-11T07:11:36.807Z,5.50
2023-09-11T07:14:06.801Z,5.85
2023-09-11T07:16:34.004Z,6.80
2023-09-11T07:19:01.099Z,8.77
2023-09-11T07:21:29.060Z,3.13
2023-09-11T07:23:56.408Z,9.25
2023-09-11T07:26:23.395Z,4.78
2023-09-11T07:29:04.098Z,2.63
2023-09-11T07:31:33.688Z,6.15
2023-09-11T07:34:01.084Z,2.42
2023-09-11T07:36:29.763Z,9.32
2023-09-11T07:38:57.110Z,3.97
2023-09-11T07:41:24.623Z,3.53
2023-09-11T07:43:52.097Z,4.18
2023-09-11T07:46:21.545Z,5.93
2023-09-11T07:48:49.911Z,6.60
2023-09-11T07:51:16.979Z,6.38
2023-09-11T07:53:44.699Z,4.95
2023-09-11T07:56:12.280Z,10.73
2023-09-11T07:58:41.449Z,8.38
2023-09-11T08:01:08.954Z,7.05
2023-09-11T08:03:36.714Z,8.23
2023-09-11T08:06:07.096Z,5.15
2023-09-11T08:08:34.371Z,9.55
2023-09-11T08:11:18.067Z,5.43
2023-09-11T08:13:47.712Z,5.78
2023-09-11T08:16:16.152Z,4.63
2023-09-11T08:18:45.314Z,9.75
2023-09-11T08:21:14.246Z,7.20
2023-09-11T08:23:45.240Z,5.80
2023-09-11T08:26:12.884Z,8.20
2023-09-11T08:28:40.242Z,6.05
2023-09-11T08:31:09.799Z,3.92
2023-09-11T08:33:52.692Z,8.05
2023-09-11T08:36:23.642Z,5.85
2023-09-11T08:38:50.774Z,7.10
2023-09-11T08:41:19.397Z,5.43
2023-09-11T08:43:48.034Z,6.85
2023-09-11T08:46:20.260Z,9.10
2023-09-11T08:48:50.959Z,4.03
2023-09-11T08:51:24.648Z,8.40
2023-09-11T08:53:53.870Z,6.78
2023-09-11T08:56:21.378Z,5.35
2023-09-11T08:58:53.013Z,8.18
2023-09-11T09:01:24.433Z,5.72
2023-09-11T09:03:59.060Z,6.40
2023-09-11T09:06:27.301Z,5.28
2023-09-11T09:08:55.189Z,4.82
2023-09-11T09:11:25.569Z,6.35
2023-09-11T09:13:53.113Z,8.98
2023-09-11T09:16:21.873Z,3.55
2023-09-11T09:18:52.682Z,5.57
2023-09-11T09:21:21.689Z,5.32
2023-09-11T09:23:48.790Z,4.93
2023-09-11T09:26:17.250Z,6.97
2023-09-11T09:28:49.000Z,5.18
2023-09-11T09:31:24.416Z,4.53
2023-09-11T09:33:57.600Z,4.65
2023-09-11T09:36:24.995Z,8.70
2023-09-11T09:39:03.823Z,9.75
2023-09-11T09:41:30.914Z,5.75
2023-09-11T09:43:58.145Z,4.68
2023-09-11T09:46:26.841Z,5.28
2023-09-11T09:48:54.698Z,4.93
2023-09-11T09:51:23.018Z,7.40
2023-09-11T09:53:55.016Z,5.60
2023-09-11T09:56:23.565Z,7.63
2023-09-11T09:58:52.039Z,10.25
2023-09-11T10:01:21.969Z,8.25
2023-09-11T10:03:55.544Z,8.40
2023-09-11T10:06:32.837Z,5.75
2023-09-11T10:09:09.061Z,5.35
2023-09-11T10:11:37.849Z,4.70
2023-09-11T10:14:10.842Z,6.13
2023-09-11T10:16:39.678Z,8.20
2023-09-11T10:19:06.715Z,5.93
2023-09-11T10:21:34.630Z,6.07
2023-09-11T10:24:03.644Z,6.18
2023-09-11T10:26:47.932Z,5.40
2023-09-11T10:29:23.099Z,5.40
2023-09-11T10:32:36.318Z,8.95
2023-09-11T10:35:06.698Z,9.65
2023-09-11T10:37:40.058Z,6.97
2023-09-11T10:40:08.600Z,9.02
2023-09-11T10:42:36.182Z,4.15
2023-09-11T10:45:05.068Z,9.30
2023-09-11T10:47:31.979Z,9.55
2023-09-11T10:49:59.144Z,11.23
2023-09-11T10:52:28.001Z,10.27
2023-09-11T10:54:55.070Z,9.60
2023-09-11T10:57:22.170Z,4.95
2023-09-11T10:59:50.818Z,6.63
2023-09-11T11:02:22.998Z,7.13
2023-09-11T11:04:50.031Z,8.23
2023-09-11T11:07:17.097Z,5.57
2023-09-11T11:09:51.838Z,9.63
2023-09-11T11:12:35.833Z,8.50
2023-09-11T11:15:25.916Z,5.95
2023-09-11T11:18:15.844Z,6.82
2023-09-11T11:21:15.931Z,7.68
2023-09-11T11:23:57.659Z,3.42
2023-09-11T11:26:28.624Z,9.73
2023-09-11T11:28:58.002Z,6.63
2023-09-11T11:31:25.897Z,5.55
2023-09-11T11:33:53.834Z,7.57
2023-09-11T11:36:21.647Z,8.25
2023-09-11T11:38:48.684Z,4.72
2023-09-11T11:41:16.651Z,5.38
2023-09-11T11:43:44.301Z,8.05
2023-09-11T11:46:13.233Z,7.43
2023-09-11T11:48:42.882Z,5.20
2023-09-11T11:51:10.724Z,5.60
2023-09-11T11:53:40.811Z,6.60
2023-09-11T11:56:08.864Z,8.65
2023-09-11T11:58:36.216Z,7.68
2023-09-11T12:01:08.252Z,2.05
2023-09-11T12:03:48.954Z,2.92
2023-09-11T12:06:17.225Z,2.78
2023-09-11T12:08:46.414Z,2.13
2023-09-11T12:11:13.450Z,2.38
2023-09-11T12:13:50.023Z,4.60
2023-09-11T12:16:20.260Z,5.50
2023-09-11T12:18:48.724Z,10.32
2023-09-11T12:21:16.005Z,8.90
2023-09-11T12:23:43.049Z,4.68
2023-09-11T12:26:10.262Z,4.97
2023-09-11T12:28:37.429Z,5.82
2023-09-11T12:31:04.560Z,4.28
2023-09-11T12:33:36.589Z,6.03
2023-09-11T12:36:05.876Z,3.30
2023-09-11T12:38:32.955Z,5.28
2023-09-11T12:40:59.860Z,2.72
2023-09-11T12:43:27.676Z,3.75
2023-09-11T12:45:54.949Z,2.42
2023-09-11T12:48:22.989Z,2.35
2023-09-11T12:50:50.591Z,3.50
2023-09-11T12:53:17.638Z,2.17
2023-09-11T12:55:44.577Z,4.65
2023-09-11T12:58:11.642Z,5.07
2023-09-11T13:00:44.622Z,5.30
2023-09-11T13:03:12.537Z,5.18
2023-09-11T13:05:40.153Z,3.65
2023-09-11T13:08:09.516Z,2.30
2023-09-11T13:10:37.093Z,2.88
2023-09-11T13:13:07.289Z,2.67
2023-09-11T13:15:35.372Z,2.70
2023-09-11T13:18:02.497Z,2.25
2023-09-11T13:20:30.516Z,1.38
2023-09-11T13:22:57.364Z,4.13
2023-09-11T13:25:24.881Z,4.18
2023-09-11T13:27:51.992Z,5.53
2023-09-11T13:30:22.803Z,2.92
2023-09-11T13:32:50.821Z,5.75
2023-09-11T13:35:17.896Z,3.25
2023-09-11T13:37:44.848Z,4.15
2023-09-11T13:40:13.121Z,1.70
2023-09-11T13:42:40.197Z,4.55
2023-09-11T13:45:10.385Z,3.78
2023-09-11T13:47:37.416Z,2.60
2023-09-11T13:50:08.248Z,5.35
2023-09-11T13:52:35.182Z,6.63
2023-09-11T13:55:02.606Z,2.83
2023-09-11T13:57:31.443Z,1.95
2023-09-11T13:59:58.447Z,3.08
2023-09-11T14:02:28.073Z,6.93
2023-09-11T14:04:56.566Z,5.15
2023-09-11T14:07:23.578Z,5.93
2023-09-11T14:09:50.610Z,18.02
2023-09-11T14:12:17.518Z,17.35
2023-09-11T14:14:44.447Z,12.80
2023-09-11T14:17:11.451Z,7.00
2023-09-11T14:19:38.466Z,5.30
2023-09-11T14:22:05.619Z,4.25
2023-09-11T14:24:34.338Z,5.53
2023-09-11T14:27:01.898Z,6.60
2023-09-11T14:29:29.444Z,11.48
2023-09-11T14:31:56.496Z,4.35
2023-09-11T14:34:23.445Z,4.35
2023-09-11T14:36:55.029Z,4.68
2023-09-11T14:39:28.194Z,15.15
2023-09-11T14:41:56.431Z,13.27
2023-09-11T14:44:24.497Z,5.95
2023-09-11T14:46:51.401Z,10.63
2023-09-11T14:49:18.338Z,13.13
2023-09-11T14:51:46.907Z,5.10
2023-09-11T14:54:14.147Z,8.98
2023-09-11T14:56:42.347Z,6.00
2023-09-11T14:59:09.572Z,8.38
2023-09-11T15:01:36.819Z,4.75
2023-09-11T15:04:05.151Z,7.07
2023-09-11T15:06:32.413Z,5.25
2023-09-11T15:09:01.816Z,3.50
2023-09-11T15:11:28.854Z,4.03
2023-09-11T15:13:56.041Z,5.18
2023-09-11T15:16:24.132Z,3.55
2023-09-11T15:18:53.665Z,6.45
2023-09-11T15:21:21.101Z,2.85
2023-09-11T15:23:48.112Z,5.85
2023-09-11T15:26:17.845Z,8.70
2023-09-11T15:28:44.743Z,4.13
2023-09-11T15:31:11.874Z,2.92
2023-09-11T15:33:38.805Z,4.47
2023-09-11T15:36:08.160Z,4.88
2023-09-11T15:38:39.191Z,2.58
2023-09-11T15:41:09.025Z,3.27
2023-09-11T15:43:39.381Z,4.50
2023-09-11T15:46:09.115Z,2.63
2023-09-11T15:48:37.697Z,6.97
2023-09-11T15:51:06.733Z,4.85
2023-09-11T15:53:35.917Z,1.95
2023-09-11T15:56:03.424Z,3.50
2023-09-11T15:58:30.848Z,4.13
2023-09-11T16:00:58.011Z,1.65
2023-09-11T16:03:29.377Z,1.60
2023-09-11T16:05:57.452Z,1.15
2023-09-11T16:08:24.422Z,4.50
2023-09-11T16:10:51.517Z,4.25
2023-09-11T16:13:18.450Z,7.22
2023-09-11T16:15:45.447Z,5.85
2023-09-11T16:18:12.879Z,5.35
2023-09-11T16:20:43.130Z,2.70
2023-09-11T16:23:10.674Z,3.83
2023-09-11T16:25:40.058Z,3.47
2023-09-11T16:28:07.725Z,12.27
2023-09-11T16:30:35.135Z,3.00
2023-09-11T16:33:04.248Z,5.63
2023-09-11T16:35:34.587Z,8.07
2023-09-11T16:38:01.794Z,8.00
2023-09-11T16:40:28.702Z,12.68
2023-09-11T16:42:55.735Z,8.27
2023-09-11T16:45:22.703Z,5.25
2023-09-11T16:47:49.914Z,7.32
2023-09-11T16:50:19.626Z,4.22
2023-09-11T16:52:47.904Z,6.63
2023-09-11T16:55:15.265Z,3.47
2023-09-11T16:57:42.848Z,2.28
2023-09-11T17:00:10.694Z,10.32
2023-09-11T17:02:41.382Z,4.63
2023-09-11T17:05:11.749Z,7.85
2023-09-11T17:07:38.725Z,9.23
2023-09-11T17:10:08.354Z,9.65
2023-09-11T17:12:35.741Z,4.00
2023-09-11T17:15:05.547Z,3.90
2023-09-11T17:17:33.751Z,8.80
2023-09-11T17:20:00.781Z,4.15
2023-09-11T17:22:30.140Z,5.60
2023-09-11T17:24:57.524Z,6.00
2023-09-11T17:27:28.793Z,5.93
2023-09-11T17:30:00.230Z,8.07
2023-09-11T17:32:27.179Z,1.50
2023-09-11T17:34:54.126Z,2.72
2023-09-11T17:37:21.685Z,4.90
2023-09-11T17:39:50.460Z,9.68
2023-09-11T17:42:17.426Z,6.57
2023-09-11T17:44:45.488Z,5.63
2023-09-11T17:47:15.119Z,2.67
2023-09-11T17:49:44.694Z,8.00
2023-09-11T17:52:12.869Z,2.72
2023-09-11T17:54:39.919Z,2.78
2023-09-11T17:57:08.500Z,2.55
2023-09-11T17:59:35.874Z,3.80
2023-09-11T18:02:04.336Z,4.47
2023-09-11T18:04:34.530Z,3.40
2023-09-11T18:07:01.593Z,3.42
2023-09-11T18:09:28.901Z,1.50
2023-09-11T18:11:56.492Z,7.32
2023-09-11T18:14:26.021Z,4.03
2023-09-11T18:16:54.301Z,5.15
2023-09-11T18:19:21.968Z,1.67
2023-09-11T18:21:49.626Z,3.90
2023-09-11T18:26:59.800Z,2.83
2023-09-11T18:29:28.376Z,9.98
2023-09-11T18:31:56.885Z,8.40
2023-09-11T18:34:27.408Z,5.20
2023-09-11T18:36:57.920Z,2.03
2023-09-11T18:39:28.357Z,6.80
2023-09-11T18:41:58.880Z,10.82
2023-09-11T18:44:27.985Z,9.32
2023-09-11T18:46:55.637Z,5.00
2023-09-11T18:49:24.962Z,11.27
2023-09-11T18:51:55.213Z,9.25
2023-09-11T18:54:26.974Z,3.88
2023-09-11T18:56:59.477Z,1.33
2023-09-11T18:59:29.462Z,1.05
2023-09-11T19:02:05.072Z,3.50
2023-09-11T19:04:34.361Z,5.43
2023-09-11T19:07:02.435Z,11.25
2023-09-11T19:09:29.532Z,7.18
2023-09-11T19:11:56.595Z,5.38
2023-09-11T19:14:23.567Z,2.78
2023-09-11T19:16:50.449Z,3.40
2023-09-11T19:19:17.642Z,5.05
2023-09-11T19:21:47.074Z,1.50
2023-09-11T19:24:15.082Z,2.55
2023-09-11T19:26:42.416Z,0.63
2023-09-11T19:29:09.341Z,1.58
2023-09-11T19:31:36.404Z,2.75
2023-09-11T19:34:04.399Z,2.60
2023-09-11T19:36:32.840Z,3.03
2023-09-11T19:39:02.407Z,1.85
2023-09-11T19:41:30.220Z,1.45
2023-09-11T19:44:53.630Z,3.45
2023-09-11T19:47:21.988Z,1.70
2023-09-11T19:49:49.212Z,2.85
2023-09-11T19:52:16.048Z,2.38
2023-09-11T19:54:44.093Z,0.68
2023-09-11T19:57:10.953Z,3.15
2023-09-11T19:59:37.861Z,0.85
2023-09-11T20:02:04.710Z,1.63
2023-09-11T20:04:31.480Z,1.65
2023-09-11T20:06:58.196Z,1.85
2023-09-11T20:09:24.924Z,1.60
2023-09-11T20:11:51.701Z,2.50
2023-09-11T20:14:18.478Z,2.95
2023-09-11T20:16:45.231Z,2.28
2023-09-11T20:19:11.977Z,3.13
2023-09-11T20:21:39.001Z,2.33
2023-09-11T20:24:06.204Z,2.95
2023-09-11T20:26:32.957Z,1.20
2023-09-11T20:28:59.597Z,2.00
2023-09-11T20:31:26.509Z,1.60
2023-09-11T20:33:53.332Z,4.20
2023-09-11T20:36:21.162Z,3.00
2023-09-11T20:38:50.686Z,2.50
2023-09-11T20:41:18.821Z,4.68
2023-09-11T20:43:47.398Z,3.15
2023-09-11T20:46:14.364Z,3.42
2023-09-11T20:48:42.183Z,4.15
2023-09-11T20:51:11.442Z,3.33
2023-09-11T20:53:39.289Z,1.63
2023-09-11T20:56:07.516Z,3.33
2023-09-11T20:58:34.987Z,0.90
2023-09-11T21:01:06.344Z,1.20
2023-09-11T21:03:33.876Z,1.83
2023-09-11T21:06:01.219Z,0.90
2023-09-11T21:08:28.396Z,1.10
2023-09-11T21:10:55.325Z,1.35
2023-09-11T21:13:23.814Z,1.75
2023-09-11T21:15:51.090Z,1.27
2023-09-11T21:18:18.345Z,4.75
2023-09-11T21:20:45.296Z,2.42
2023-09-11T21:23:12.026Z,2.47
2023-09-11T21:25:39.046Z,2.67
2023-09-11T21:28:06.939Z,3.50
2023-09-11T21:30:35.029Z,1.67
2023-09-11T21:33:01.929Z,1.67
2023-09-11T21:35:28.881Z,2.45
2023-09-11T21:37:55.849Z,1.60
2023-09-11T21:40:22.598Z,5.72
2023-09-11T21:42:49.306Z,2.03
2023-09-11T21:45:16.536Z,4.20
2023-09-11T21:47:43.345Z,2.22
2023-09-11T21:50:10.278Z,2.97
2023-09-11T21:52:37.036Z,3.10
2023-09-11T21:55:04.508Z,3.85
2023-09-11T21:57:31.414Z,2.05
2023-09-11T21:59:59.826Z,5.63
2023-09-11T22:02:27.047Z,6.20
2023-09-11T22:04:53.775Z,2.20
2023-09-11T22:07:20.562Z,4.70
2023-09-11T22:09:47.306Z,2.75
2023-09-11T22:12:14.102Z,3.92
2023-09-11T22:14:40.893Z,6.20
2023-09-11T22:17:08.756Z,4.28
2023-09-11T22:19:37.168Z,3.28
2023-09-11T22:22:04.020Z,1.58
2023-09-11T22:24:30.774Z,2.20
2023-09-11T22:27:00.910Z,7.72
2023-09-11T22:29:33.546Z,8.65
2023-09-11T22:32:01.000Z,6.47
2023-09-11T22:34:28.044Z,5.07
2023-09-11T22:36:55.209Z,3.97
2023-09-11T22:39:21.947Z,7.57
2023-09-11T22:41:49.164Z,7.32
2023-09-11T22:44:15.992Z,8.60
2023-09-11T22:46:42.743Z,5.18
2023-09-11T22:49:09.772Z,4.15
2023-09-11T22:51:38.406Z,12.80
2023-09-11T22:54:05.276Z,8.35
2023-09-11T22:56:31.917Z,6.50
2023-09-11T22:59:01.284Z,5.50
2023-09-11T23:01:28.612Z,6.38
2023-09-11T23:03:56.065Z,6.78
2023-09-11T23:06:22.990Z,5.90
2023-09-11T23:08:49.716Z,6.30
2023-09-11T23:11:16.445Z,9.93
2023-09-11T23:13:43.140Z,6.95
2023-09-11T23:16:10.387Z,3.05
2023-09-11T23:18:37.281Z,2.15
2023-09-11T23:21:04.247Z,8.02
2023-09-11T23:23:40.632Z,10.13
2023-09-11T23:26:07.980Z,9.93
2023-09-11T23:28:35.081Z,4.35
2023-09-11T23:31:02.550Z,7.43
2023-09-11T23:33:29.336Z,5.25
2023-09-11T23:35:59.321Z,9.60
2023-09-11T23:38:28.143Z,9.70
2023-09-11T23:40:54.849Z,12.93
2023-09-11T23:43:21.572Z,4.57
2023-09-11T23:45:49.215Z,8.57
2023-09-11T23:48:15.959Z,9.82
2023-09-11T23:50:44.164Z,7.70
2023-09-11T23:53:12.933Z,6.80
2023-09-11T23:55:40.405Z,7.40
2023-09-11T23:58:07.089Z,3.85
